sensor_id;sensor_type;location;lat;lon;timestamp;pressure;altitude;pressure_sealevel;temperature;humidity
44663;BME280;30381;52.754;18.258;2023-04-08T00:07:50;101213.74;;;5.67;100.00
44663;BME280;30381;52.754;18.258;2023-04-08T00:21:09;101229.50;;;5.44;100.00
44663;BME280;30381;52.754;18.258;2023-04-08T01:18:36;101269.40;;;4.65;100.00
44663;BME280;30381;52.754;18.258;2023-04-08T01:47:27;101273.67;;;4.67;100.00
44663;BME280;30381;52.754;18.258;2023-04-08T01:59:35;101277.79;;;4.70;100.00
44663;BME280;30381;52.754;18.258;2023-04-08T02:28:06;101303.83;;;3.99;100.00
44663;BME280;30381;52.754;18.258;2023-04-08T03:11:30;101350.89;;;3.80;100.00
44663;BME280;30381;52.754;18.258;2023-04-08T04:11:18;101391.50;;;3.67;100.00
44663;BME280;30381;52.754;18.258;2023-04-08T06:15:44;101501.53;;;7.09;100.00
44663;BME280;30381;52.754;18.258;2023-04-08T06:18:13;101501.48;;;7.09;100.00
44663;BME280;30381;52.754;18.258;2023-04-08T06:20:41;101507.45;;;7.12;100.00
44663;BME280;30381;52.754;18.258;2023-04-08T06:23:14;101508.18;;;7.11;100.00
44663;BME280;30381;52.754;18.258;2023-04-08T06:25:42;101509.98;;;7.10;100.00
44663;BME280;30381;52.754;18.258;2023-04-08T06:28:09;101516.60;;;7.10;100.00
44663;BME280;30381;52.754;18.258;2023-04-08T06:31:04;101518.83;;;7.09;100.00
44663;BME280;30381;52.754;18.258;2023-04-08T06:33:31;101518.56;;;7.11;100.00
44663;BME280;30381;52.754;18.258;2023-04-08T06:36:02;101518.66;;;7.18;100.00
44663;BME280;30381;52.754;18.258;2023-04-08T07:31:15;101573.33;;;7.62;100.00
44663;BME280;30381;52.754;18.258;2023-04-08T07:37:15;101579.96;;;7.77;100.00
44663;BME280;30381;52.754;18.258;2023-04-08T07:39:58;101581.76;;;7.94;100.00
44663;BME280;30381;52.754;18.258;2023-04-08T08:00:25;101601.45;;;8.17;100.00
44663;BME280;30381;52.754;18.258;2023-04-08T08:09:43;101612.95;;;8.53;100.00
44663;BME280;30381;52.754;18.258;2023-04-08T08:12:27;101616.84;;;8.66;100.00
44663;BME280;30381;52.754;18.258;2023-04-08T08:29:57;101623.13;;;9.17;100.00
44663;BME280;30381;52.754;18.258;2023-04-08T08:32:31;101622.30;;;9.41;100.00
44663;BME280;30381;52.754;18.258;2023-04-08T08:35:19;101620.65;;;9.74;100.00
44663;BME280;30381;52.754;18.258;2023-04-08T08:38:01;101618.55;;;10.00;100.00
44663;BME280;30381;52.754;18.258;2023-04-08T08:40:32;101616.59;;;10.09;100.00
44663;BME280;30381;52.754;18.258;2023-04-08T08:43:05;101619.79;;;10.07;100.00
44663;BME280;30381;52.754;18.258;2023-04-08T08:45:40;101614.89;;;10.06;100.00
44663;BME280;30381;52.754;18.258;2023-04-08T08:48:09;101617.08;;;10.27;100.00
44663;BME280;30381;52.754;18.258;2023-04-08T08:50:46;101615.59;;;10.40;100.00
44663;BME280;30381;52.754;18.258;2023-04-08T08:53:14;101622.36;;;10.53;100.00
44663;BME280;30381;52.754;18.258;2023-04-08T08:55:54;101623.69;;;10.53;100.00
44663;BME280;30381;52.754;18.258;2023-04-08T09:16:41;101626.28;;;11.89;100.00
44663;BME280;30381;52.754;18.258;2023-04-08T09:19:12;101631.05;;;11.78;100.00
44663;BME280;30381;52.754;18.258;2023-04-08T09:22:29;101625.30;;;11.78;100.00
44663;BME280;30381;52.754;18.258;2023-04-08T09:25:37;101628.50;;;11.92;100.00
44663;BME280;30381;52.754;18.258;2023-04-08T09:28:39;101630.95;;;11.87;100.00
44663;BME280;30381;52.754;18.258;2023-04-08T10:17:46;101633.86;;;13.44;100.00
44663;BME280;30381;52.754;18.258;2023-04-08T10:20:41;101630.23;;;13.34;100.00
44663;BME280;30381;52.754;18.258;2023-04-08T10:23:52;101629.31;;;13.47;100.00
44663;BME280;30381;52.754;18.258;2023-04-08T10:26:53;101633.05;;;13.52;100.00
44663;BME280;30381;52.754;18.258;2023-04-08T10:29:44;101631.35;;;13.29;100.00
44663;BME280;30381;52.754;18.258;2023-04-08T10:32:47;101626.66;;;13.45;100.00
44663;BME280;30381;52.754;18.258;2023-04-08T10:35:29;101626.02;;;13.57;100.00
44663;BME280;30381;52.754;18.258;2023-04-08T11:09:19;101620.80;;;13.51;100.00
44663;BME280;30381;52.754;18.258;2023-04-08T11:12:45;101620.40;;;13.62;100.00
44663;BME280;30381;52.754;18.258;2023-04-08T11:18:06;101617.84;;;13.75;100.00
44663;BME280;30381;52.754;18.258;2023-04-08T11:36:27;101617.23;;;13.60;100.00
44663;BME280;30381;52.754;18.258;2023-04-08T11:39:10;101618.87;;;13.85;100.00
44663;BME280;30381;52.754;18.258;2023-04-08T11:41:46;101618.14;;;14.12;100.00
44663;BME280;30381;52.754;18.258;2023-04-08T11:44:33;101611.74;;;14.34;100.00
44663;BME280;30381;52.754;18.258;2023-04-08T11:47:06;101613.37;;;14.49;100.00
44663;BME280;30381;52.754;18.258;2023-04-08T11:49:51;101611.44;;;14.60;100.00
44663;BME280;30381;52.754;18.258;2023-04-08T11:52:46;101612.40;;;14.84;100.00
44663;BME280;30381;52.754;18.258;2023-04-08T11:55:29;101611.35;;;15.06;100.00
44663;BME280;30381;52.754;18.258;2023-04-08T11:58:02;101614.23;;;15.18;100.00
44663;BME280;30381;52.754;18.258;2023-04-08T12:00:41;101610.93;;;15.38;100.00
44663;BME280;30381;52.754;18.258;2023-04-08T12:03:23;101611.27;;;15.36;100.00
44663;BME280;30381;52.754;18.258;2023-04-08T12:06:44;101612.33;;;15.28;100.00
44663;BME280;30381;52.754;18.258;2023-04-08T12:09:29;101610.23;;;15.33;100.00
44663;BME280;30381;52.754;18.258;2023-04-08T12:12:23;101609.52;;;15.44;100.00
44663;BME280;30381;52.754;18.258;2023-04-08T12:15:02;101610.49;;;15.49;100.00
44663;BME280;30381;52.754;18.258;2023-04-08T12:17:30;101615.25;;;15.57;100.00
44663;BME280;30381;52.754;18.258;2023-04-08T12:19:57;101612.50;;;15.59;100.00
44663;BME280;30381;52.754;18.258;2023-04-08T12:22:28;101608.29;;;15.55;100.00
44663;BME280;30381;52.754;18.258;2023-04-08T12:25:05;101605.47;;;15.59;100.00
44663;BME280;30381;52.754;18.258;2023-04-08T12:28:04;101609.02;;;15.51;100.00
44663;BME280;30381;52.754;18.258;2023-04-08T12:30:56;101602.99;;;15.42;100.00
44663;BME280;30381;52.754;18.258;2023-04-08T12:33:23;101602.62;;;15.31;100.00
44663;BME280;30381;52.754;18.258;2023-04-08T12:35:51;101601.54;;;15.21;100.00
44663;BME280;30381;52.754;18.258;2023-04-08T12:38:21;101604.84;;;15.19;100.00
44663;BME280;30381;52.754;18.258;2023-04-08T12:40:49;101599.83;;;15.13;100.00
44663;BME280;30381;52.754;18.258;2023-04-08T12:43:20;101602.79;;;14.90;100.00
44663;BME280;30381;52.754;18.258;2023-04-08T12:45:50;101600.98;;;14.87;100.00
44663;BME280;30381;52.754;18.258;2023-04-08T12:48:20;101596.74;;;14.88;100.00
44663;BME280;30381;52.754;18.258;2023-04-08T12:51:15;101596.96;;;14.85;100.00
44663;BME280;30381;52.754;18.258;2023-04-08T12:53:51;101594.08;;;14.93;100.00
44663;BME280;30381;52.754;18.258;2023-04-08T12:56:40;101595.97;;;15.00;100.00
44663;BME280;30381;52.754;18.258;2023-04-08T12:59:18;101594.30;;;14.86;100.00
44663;BME280;30381;52.754;18.258;2023-04-08T13:01:59;101593.61;;;14.97;100.00
44663;BME280;30381;52.754;18.258;2023-04-08T13:04:28;101593.02;;;15.13;100.00
44663;BME280;30381;52.754;18.258;2023-04-08T13:07:04;101594.20;;;15.27;100.00
44663;BME280;30381;52.754;18.258;2023-04-08T13:09:44;101591.70;;;15.27;100.00
44663;BME280;30381;52.754;18.258;2023-04-08T13:12:16;101595.58;;;15.30;100.00
44663;BME280;30381;52.754;18.258;2023-04-08T13:15:04;101593.66;;;15.32;100.00
44663;BME280;30381;52.754;18.258;2023-04-08T13:17:50;101594.79;;;15.07;100.00
44663;BME280;30381;52.754;18.258;2023-04-08T13:42:38;101592.97;;;14.69;100.00
44663;BME280;30381;52.754;18.258;2023-04-08T13:45:14;101589.96;;;14.66;100.00
44663;BME280;30381;52.754;18.258;2023-04-08T13:47:50;101591.37;;;14.63;100.00
44663;BME280;30381;52.754;18.258;2023-04-08T13:50:17;101591.63;;;14.48;100.00
44663;BME280;30381;52.754;18.258;2023-04-08T13:53:09;101594.79;;;14.16;100.00
44663;BME280;30381;52.754;18.258;2023-04-08T13:55:36;101598.45;;;14.01;100.00
44663;BME280;30381;52.754;18.258;2023-04-08T13:58:03;101598.65;;;13.90;100.00
44663;BME280;30381;52.754;18.258;2023-04-08T14:00:31;101596.80;;;13.92;100.00
44663;BME280;30381;52.754;18.258;2023-04-08T14:02:58;101590.31;;;14.05;100.00
44663;BME280;30381;52.754;18.258;2023-04-08T14:05:26;101583.24;;;14.11;100.00
44663;BME280;30381;52.754;18.258;2023-04-08T14:08:39;101581.23;;;14.20;100.00
44663;BME280;30381;52.754;18.258;2023-04-08T14:11:57;101580.77;;;14.29;100.00
44663;BME280;30381;52.754;18.258;2023-04-08T14:14:30;101578.91;;;14.34;100.00
44663;BME280;30381;52.754;18.258;2023-04-08T14:17:09;101573.90;;;14.44;100.00
44663;BME280;30381;52.754;18.258;2023-04-08T14:19:43;101570.96;;;14.49;100.00
44663;BME280;30381;52.754;18.258;2023-04-08T14:22:38;101572.65;;;14.48;100.00
44663;BME280;30381;52.754;18.258;2023-04-08T14:25:09;101566.62;;;14.42;100.00
44663;BME280;30381;52.754;18.258;2023-04-08T14:27:36;101565.13;;;14.43;100.00
44663;BME280;30381;52.754;18.258;2023-04-08T14:30:08;101562.98;;;14.42;100.00
44663;BME280;30381;52.754;18.258;2023-04-08T14:32:36;101563.96;;;14.47;100.00
44663;BME280;30381;52.754;18.258;2023-04-08T14:35:08;101563.30;;;14.49;100.00
44663;BME280;30381;52.754;18.258;2023-04-08T14:38:16;101556.63;;;14.50;100.00
44663;BME280;30381;52.754;18.258;2023-04-08T14:41:05;101559.02;;;14.55;100.00
44663;BME280;30381;52.754;18.258;2023-04-08T14:43:33;101558.38;;;14.55;100.00
44663;BME280;30381;52.754;18.258;2023-04-08T14:46:02;101557.23;;;14.48;99.74
44663;BME280;30381;52.754;18.258;2023-04-08T14:48:30;101561.30;;;14.40;98.57
44663;BME280;30381;52.754;18.258;2023-04-08T14:50:57;101560.30;;;14.26;98.62
44663;BME280;30381;52.754;18.258;2023-04-08T14:53:25;101559.89;;;14.19;98.78
44663;BME280;30381;52.754;18.258;2023-04-08T14:55:52;101557.24;;;14.18;99.04
44663;BME280;30381;52.754;18.258;2023-04-08T14:59:01;101557.14;;;14.07;96.73
44663;BME280;30381;52.754;18.258;2023-04-08T15:36:05;101556.14;;;13.56;96.81
44663;BME280;30381;52.754;18.258;2023-04-08T15:42:12;101555.36;;;13.50;96.60
44663;BME280;30381;52.754;18.258;2023-04-08T15:44:42;101554.63;;;13.50;96.83
44663;BME280;30381;52.754;18.258;2023-04-08T15:47:09;101556.59;;;13.50;97.06
44663;BME280;30381;52.754;18.258;2023-04-08T15:49:39;101554.91;;;13.48;96.76
44663;BME280;30381;52.754;18.258;2023-04-08T15:52:10;101558.08;;;13.47;96.76
44663;BME280;30381;52.754;18.258;2023-04-08T15:54:57;101557.70;;;13.46;96.26
44663;BME280;30381;52.754;18.258;2023-04-08T15:57:59;101555.66;;;13.41;96.27
44663;BME280;30381;52.754;18.258;2023-04-08T16:01:14;101559.02;;;13.39;96.31
44663;BME280;30381;52.754;18.258;2023-04-08T16:19:20;101566.13;;;13.16;96.63
44663;BME280;30381;52.754;18.258;2023-04-08T16:22:37;101568.63;;;13.08;96.57
44663;BME280;30381;52.754;18.258;2023-04-08T16:25:57;101565.26;;;13.02;97.18
44663;BME280;30381;52.754;18.258;2023-04-08T16:28:38;101566.69;;;13.01;97.61
44663;BME280;30381;52.754;18.258;2023-04-08T16:31:19;101566.02;;;13.00;97.69
44663;BME280;30381;52.754;18.258;2023-04-08T16:34:17;101563.75;;;12.92;97.92
44663;BME280;30381;52.754;18.258;2023-04-08T16:36:50;101565.73;;;12.84;97.95
44663;BME280;30381;52.754;18.258;2023-04-08T16:39:25;101566.04;;;12.74;97.83
44663;BME280;30381;52.754;18.258;2023-04-08T16:41:59;101567.20;;;12.64;98.03
44663;BME280;30381;52.754;18.258;2023-04-08T16:44:31;101571.10;;;12.54;98.20
44663;BME280;30381;52.754;18.258;2023-04-08T16:47:04;101570.98;;;12.46;98.62
44663;BME280;30381;52.754;18.258;2023-04-08T16:49:49;101569.67;;;12.39;98.62
44663;BME280;30381;52.754;18.258;2023-04-08T16:53:03;101573.45;;;12.28;98.37
44663;BME280;30381;52.754;18.258;2023-04-08T21:13:02;101664.64;;;8.01;100.00
44663;BME280;30381;52.754;18.258;2023-04-08T21:19:16;101659.85;;;7.94;100.00
44663;BME280;30381;52.754;18.258;2023-04-08T21:23:13;101659.28;;;7.90;100.00
44663;BME280;30381;52.754;18.258;2023-04-08T21:27:03;101659.45;;;7.86;100.00
44663;BME280;30381;52.754;18.258;2023-04-08T21:30:14;101655.89;;;7.82;100.00
44663;BME280;30381;52.754;18.258;2023-04-08T21:48:17;101658.18;;;7.67;100.00
44663;BME280;30381;52.754;18.258;2023-04-08T22:41:52;101634.52;;;7.66;100.00
44663;BME280;30381;52.754;18.258;2023-04-08T22:52:55;101629.92;;;7.59;100.00
44663;BME280;30381;52.754;18.258;2023-04-08T22:57:05;101628.59;;;7.56;100.00
44663;BME280;30381;52.754;18.258;2023-04-08T23:00:52;101627.67;;;7.55;100.00
44663;BME280;30381;52.754;18.258;2023-04-08T23:27:46;101617.67;;;7.51;100.00
44663;BME280;30381;52.754;18.258;2023-04-08T23:37:54;101615.66;;;7.48;100.00
